sensor_id;sensor_type;location;lat;lon;timestamp;P1;durP1;ratioP1;P2;durP2;ratioP2
21593;SDS011;10959;51.328;7.322;2024-02-26T00:00:44;1.70;;;1.60;;
21593;SDS011;10959;51.328;7.322;2024-02-26T00:03:11;2.53;;;1.80;;
21593;SDS011;10959;51.328;7.322;2024-02-26T00:05:38;1.90;;;1.70;;
21593;SDS011;10959;51.328;7.322;2024-02-26T00:08:05;3.53;;;2.00;;
21593;SDS011;10959;51.328;7.322;2024-02-26T00:10:31;2.80;;;1.90;;
21593;SDS011;10959;51.328;7.322;2024-02-26T00:12:58;3.73;;;1.97;;
21593;SDS011;10959;51.328;7.322;2024-02-26T00:15:24;1.77;;;1.67;;
21593;SDS011;10959;51.328;7.322;2024-02-26T00:17:54;2.63;;;1.80;;
21593;SDS011;10959;51.328;7.322;2024-02-26T00:20:20;2.13;;;1.80;;
21593;SDS011;10959;51.328;7.322;2024-02-26T00:22:47;2.27;;;1.93;;
21593;SDS011;10959;51.328;7.322;2024-02-26T00:25:13;2.03;;;1.83;;
21593;SDS011;10959;51.328;7.322;2024-02-26T00:27:40;4.80;;;2.00;;
21593;SDS011;10959;51.328;7.322;2024-02-26T00:30:07;2.07;;;1.87;;
21593;SDS011;10959;51.328;7.322;2024-02-26T00:32:34;2.43;;;1.97;;
21593;SDS011;10959;51.328;7.322;2024-02-26T00:35:02;2.80;;;1.87;;
21593;SDS011;10959;51.328;7.322;2024-02-26T00:37:29;3.23;;;2.30;;
21593;SDS011;10959;51.328;7.322;2024-02-26T00:39:55;2.83;;;2.40;;
21593;SDS011;10959;51.328;7.322;2024-02-26T00:42:22;2.83;;;2.20;;
21593;SDS011;10959;51.328;7.322;2024-02-26T00:44:48;2.87;;;2.00;;
21593;SDS011;10959;51.328;7.322;2024-02-26T00:47:15;2.90;;;2.00;;
21593;SDS011;10959;51.328;7.322;2024-02-26T00:49:41;3.60;;;2.03;;
21593;SDS011;10959;51.328;7.322;2024-02-26T00:52:09;2.57;;;2.27;;
21593;SDS011;10959;51.328;7.322;2024-02-26T00:54:35;3.63;;;2.50;;
21593;SDS011;10959;51.328;7.322;2024-02-26T00:57:02;4.90;;;2.97;;
21593;SDS011;10959;51.328;7.322;2024-02-26T00:59:28;3.23;;;2.70;;
21593;SDS011;10959;51.328;7.322;2024-02-26T01:01:55;3.70;;;2.67;;
21593;SDS011;10959;51.328;7.322;2024-02-26T01:04:21;3.60;;;2.57;;
21593;SDS011;10959;51.328;7.322;2024-02-26T01:06:48;3.53;;;2.23;;
21593;SDS011;10959;51.328;7.322;2024-02-26T01:09:15;6.00;;;2.33;;
21593;SDS011;10959;51.328;7.322;2024-02-26T01:11:43;2.30;;;2.10;;
21593;SDS011;10959;51.328;7.322;2024-02-26T01:14:09;2.63;;;2.10;;
21593;SDS011;10959;51.328;7.322;2024-02-26T01:16:36;2.83;;;2.13;;
21593;SDS011;10959;51.328;7.322;2024-02-26T01:19:02;4.17;;;2.40;;
21593;SDS011;10959;51.328;7.322;2024-02-26T01:21:29;2.87;;;2.57;;
21593;SDS011;10959;51.328;7.322;2024-02-26T01:23:55;4.00;;;2.60;;
21593;SDS011;10959;51.328;7.322;2024-02-26T01:26:23;3.20;;;2.40;;
21593;SDS011;10959;51.328;7.322;2024-02-26T01:28:49;3.43;;;2.70;;
21593;SDS011;10959;51.328;7.322;2024-02-26T01:31:16;3.23;;;2.00;;
21593;SDS011;10959;51.328;7.322;2024-02-26T01:33:42;3.13;;;2.47;;
21593;SDS011;10959;51.328;7.322;2024-02-26T01:36:08;2.40;;;2.20;;
21593;SDS011;10959;51.328;7.322;2024-02-26T01:38:35;3.17;;;2.30;;
21593;SDS011;10959;51.328;7.322;2024-02-26T01:41:01;2.77;;;2.40;;
21593;SDS011;10959;51.328;7.322;2024-02-26T01:43:29;3.00;;;2.30;;
21593;SDS011;10959;51.328;7.322;2024-02-26T01:45:56;3.17;;;2.47;;
21593;SDS011;10959;51.328;7.322;2024-02-26T01:48:22;3.47;;;2.50;;
21593;SDS011;10959;51.328;7.322;2024-02-26T01:50:49;2.43;;;2.17;;
21593;SDS011;10959;51.328;7.322;2024-02-26T01:53:16;3.07;;;2.50;;
21593;SDS011;10959;51.328;7.322;2024-02-26T01:55:43;3.63;;;2.60;;
21593;SDS011;10959;51.328;7.322;2024-02-26T01:58:09;4.90;;;2.40;;
21593;SDS011;10959;51.328;7.322;2024-02-26T02:00:38;3.67;;;2.40;;
21593;SDS011;10959;51.328;7.322;2024-02-26T02:03:05;2.53;;;2.30;;
21593;SDS011;10959;51.328;7.322;2024-02-26T02:05:32;2.90;;;1.90;;
21593;SDS011;10959;51.328;7.322;2024-02-26T02:07:59;3.70;;;1.67;;
21593;SDS011;10959;51.328;7.322;2024-02-26T02:10:28;2.97;;;1.67;;
21593;SDS011;10959;51.328;7.322;2024-02-26T02:12:55;2.03;;;1.83;;
21593;SDS011;10959;51.328;7.322;2024-02-26T02:15:21;2.67;;;2.00;;
21593;SDS011;10959;51.328;7.322;2024-02-26T02:17:49;2.60;;;2.07;;
21593;SDS011;10959;51.328;7.322;2024-02-26T02:20:16;1.67;;;1.53;;
21593;SDS011;10959;51.328;7.322;2024-02-26T02:22:44;2.83;;;2.00;;
21593;SDS011;10959;51.328;7.322;2024-02-26T02:25:11;2.10;;;1.90;;
21593;SDS011;10959;51.328;7.322;2024-02-26T02:27:38;1.90;;;1.80;;
21593;SDS011;10959;51.328;7.322;2024-02-26T02:30:06;2.00;;;1.80;;
21593;SDS011;10959;51.328;7.322;2024-02-26T02:32:33;2.20;;;2.00;;
21593;SDS011;10959;51.328;7.322;2024-02-26T02:35:00;1.50;;;1.40;;
21593;SDS011;10959;51.328;7.322;2024-02-26T02:37:27;2.67;;;1.77;;
21593;SDS011;10959;51.328;7.322;2024-02-26T02:39:54;3.67;;;1.87;;
21593;SDS011;10959;51.328;7.322;2024-02-26T02:42:22;2.30;;;1.60;;
21593;SDS011;10959;51.328;7.322;2024-02-26T02:44:49;4.40;;;1.77;;
21593;SDS011;10959;51.328;7.322;2024-02-26T02:47:16;1.60;;;1.47;;
21593;SDS011;10959;51.328;7.322;2024-02-26T02:49:42;1.67;;;1.40;;
21593;SDS011;10959;51.328;7.322;2024-02-26T02:52:09;2.00;;;1.50;;
21593;SDS011;10959;51.328;7.322;2024-02-26T02:54:35;1.90;;;1.40;;
21593;SDS011;10959;51.328;7.322;2024-02-26T02:57:03;2.97;;;2.00;;
21593;SDS011;10959;51.328;7.322;2024-02-26T02:59:30;1.67;;;1.57;;
21593;SDS011;10959;51.328;7.322;2024-02-26T03:01:56;1.93;;;1.73;;
21593;SDS011;10959;51.328;7.322;2024-02-26T03:04:23;3.67;;;1.63;;
21593;SDS011;10959;51.328;7.322;2024-02-26T03:06:49;2.83;;;1.80;;
21593;SDS011;10959;51.328;7.322;2024-02-26T03:09:16;1.90;;;1.70;;
21593;SDS011;10959;51.328;7.322;2024-02-26T03:11:42;1.50;;;1.40;;
21593;SDS011;10959;51.328;7.322;2024-02-26T03:14:10;1.97;;;1.57;;
21593;SDS011;10959;51.328;7.322;2024-02-26T03:16:36;2.00;;;1.33;;
21593;SDS011;10959;51.328;7.322;2024-02-26T03:19:03;2.00;;;1.73;;
21593;SDS011;10959;51.328;7.322;2024-02-26T03:21:29;3.17;;;1.70;;
21593;SDS011;10959;51.328;7.322;2024-02-26T03:23:56;2.57;;;1.80;;
21593;SDS011;10959;51.328;7.322;2024-02-26T03:26:22;1.90;;;1.70;;
21593;SDS011;10959;51.328;7.322;2024-02-26T03:28:49;1.50;;;1.40;;
21593;SDS011;10959;51.328;7.322;2024-02-26T03:31:16;2.83;;;1.77;;
21593;SDS011;10959;51.328;7.322;2024-02-26T03:33:43;3.00;;;1.90;;
21593;SDS011;10959;51.328;7.322;2024-02-26T03:36:09;1.97;;;1.60;;
21593;SDS011;10959;51.328;7.322;2024-02-26T03:38:36;2.77;;;1.97;;
21593;SDS011;10959;51.328;7.322;2024-02-26T03:41:03;2.37;;;2.17;;
21593;SDS011;10959;51.328;7.322;2024-02-26T03:43:30;3.23;;;1.67;;
21593;SDS011;10959;51.328;7.322;2024-02-26T03:45:56;2.97;;;1.60;;
21593;SDS011;10959;51.328;7.322;2024-02-26T03:48:24;3.67;;;1.80;;
21593;SDS011;10959;51.328;7.322;2024-02-26T03:50:51;3.37;;;2.23;;
21593;SDS011;10959;51.328;7.322;2024-02-26T03:53:17;2.07;;;1.87;;
21593;SDS011;10959;51.328;7.322;2024-02-26T03:55:44;2.40;;;1.80;;
21593;SDS011;10959;51.328;7.322;2024-02-26T03:58:12;2.70;;;2.20;;
21593;SDS011;10959;51.328;7.322;2024-02-26T04:00:38;2.37;;;2.17;;
21593;SDS011;10959;51.328;7.322;2024-02-26T04:03:05;2.03;;;1.93;;
21593;SDS011;10959;51.328;7.322;2024-02-26T04:05:33;2.37;;;2.07;;
21593;SDS011;10959;51.328;7.322;2024-02-26T04:07:59;2.87;;;2.30;;
21593;SDS011;10959;51.328;7.322;2024-02-26T04:10:25;3.17;;;2.53;;
21593;SDS011;10959;51.328;7.322;2024-02-26T04:12:52;2.83;;;2.63;;
21593;SDS011;10959;51.328;7.322;2024-02-26T04:15:18;2.43;;;2.23;;
21593;SDS011;10959;51.328;7.322;2024-02-26T04:17:45;2.73;;;2.53;;
21593;SDS011;10959;51.328;7.322;2024-02-26T04:20:13;3.30;;;3.00;;
21593;SDS011;10959;51.328;7.322;2024-02-26T04:22:41;3.00;;;2.30;;
21593;SDS011;10959;51.328;7.322;2024-02-26T04:25:08;3.33;;;2.47;;
21593;SDS011;10959;51.328;7.322;2024-02-26T04:27:35;2.73;;;2.53;;
21593;SDS011;10959;51.328;7.322;2024-02-26T04:30:01;3.43;;;2.03;;
21593;SDS011;10959;51.328;7.322;2024-02-26T04:32:29;2.20;;;2.00;;
21593;SDS011;10959;51.328;7.322;2024-02-26T04:34:55;2.90;;;2.50;;
21593;SDS011;10959;51.328;7.322;2024-02-26T04:37:21;2.90;;;2.60;;
21593;SDS011;10959;51.328;7.322;2024-02-26T04:39:49;2.40;;;2.17;;
21593;SDS011;10959;51.328;7.322;2024-02-26T04:42:16;2.50;;;2.30;;
21593;SDS011;10959;51.328;7.322;2024-02-26T04:44:42;3.07;;;2.77;;
21593;SDS011;10959;51.328;7.322;2024-02-26T04:47:09;2.53;;;2.30;;
21593;SDS011;10959;51.328;7.322;2024-02-26T04:49:35;4.57;;;2.37;;
21593;SDS011;10959;51.328;7.322;2024-02-26T04:52:02;3.27;;;2.97;;
21593;SDS011;10959;51.328;7.322;2024-02-26T04:54:29;2.80;;;2.60;;
21593;SDS011;10959;51.328;7.322;2024-02-26T04:56:56;4.37;;;2.77;;
21593;SDS011;10959;51.328;7.322;2024-02-26T04:59:23;3.20;;;2.80;;
21593;SDS011;10959;51.328;7.322;2024-02-26T05:01:50;3.30;;;2.83;;
21593;SDS011;10959;51.328;7.322;2024-02-26T05:04:17;3.00;;;2.70;;
21593;SDS011;10959;51.328;7.322;2024-02-26T05:06:44;3.30;;;2.97;;
21593;SDS011;10959;51.328;7.322;2024-02-26T05:09:10;2.67;;;2.47;;
21593;SDS011;10959;51.328;7.322;2024-02-26T05:11:37;4.07;;;3.07;;
21593;SDS011;10959;51.328;7.322;2024-02-26T05:14:05;3.20;;;2.90;;
21593;SDS011;10959;51.328;7.322;2024-02-26T05:16:31;3.03;;;2.83;;
21593;SDS011;10959;51.328;7.322;2024-02-26T05:18:58;3.73;;;3.43;;
21593;SDS011;10959;51.328;7.322;2024-02-26T05:21:24;4.93;;;3.37;;
21593;SDS011;10959;51.328;7.322;2024-02-26T05:23:51;5.13;;;4.00;;
21593;SDS011;10959;51.328;7.322;2024-02-26T05:26:20;3.50;;;3.20;;
21593;SDS011;10959;51.328;7.322;2024-02-26T05:28:47;5.47;;;4.03;;
21593;SDS011;10959;51.328;7.322;2024-02-26T05:31:15;5.27;;;3.50;;
21593;SDS011;10959;51.328;7.322;2024-02-26T05:33:43;3.23;;;3.03;;
21593;SDS011;10959;51.328;7.322;2024-02-26T05:36:09;4.93;;;3.60;;
21593;SDS011;10959;51.328;7.322;2024-02-26T05:38:36;4.73;;;4.27;;
21593;SDS011;10959;51.328;7.322;2024-02-26T05:41:02;4.50;;;4.03;;
21593;SDS011;10959;51.328;7.322;2024-02-26T05:43:30;5.47;;;4.10;;
21593;SDS011;10959;51.328;7.322;2024-02-26T05:45:57;4.87;;;4.23;;
21593;SDS011;10959;51.328;7.322;2024-02-26T05:48:24;4.67;;;3.77;;
21593;SDS011;10959;51.328;7.322;2024-02-26T05:50:51;4.70;;;3.93;;
21593;SDS011;10959;51.328;7.322;2024-02-26T05:53:17;5.17;;;4.37;;
21593;SDS011;10959;51.328;7.322;2024-02-26T05:55:44;4.27;;;3.57;;
21593;SDS011;10959;51.328;7.322;2024-02-26T05:58:10;3.73;;;3.40;;
21593;SDS011;10959;51.328;7.322;2024-02-26T06:00:37;4.43;;;4.03;;
21593;SDS011;10959;51.328;7.322;2024-02-26T06:03:03;4.00;;;3.60;;
21593;SDS011;10959;51.328;7.322;2024-02-26T06:05:31;3.17;;;2.97;;
21593;SDS011;10959;51.328;7.322;2024-02-26T06:07:58;4.17;;;3.77;;
21593;SDS011;10959;51.328;7.322;2024-02-26T06:10:24;3.23;;;2.93;;
21593;SDS011;10959;51.328;7.322;2024-02-26T06:12:50;4.97;;;4.10;;
21593;SDS011;10959;51.328;7.322;2024-02-26T06:15:17;4.20;;;3.80;;
21593;SDS011;10959;51.328;7.322;2024-02-26T06:17:43;4.30;;;3.90;;
21593;SDS011;10959;51.328;7.322;2024-02-26T06:20:10;3.47;;;3.17;;
21593;SDS011;10959;51.328;7.322;2024-02-26T06:22:40;5.30;;;4.70;;
21593;SDS011;10959;51.328;7.322;2024-02-26T06:25:07;5.80;;;5.30;;
21593;SDS011;10959;51.328;7.322;2024-02-26T06:27:34;5.07;;;4.67;;
21593;SDS011;10959;51.328;7.322;2024-02-26T06:30:00;4.90;;;4.30;;
21593;SDS011;10959;51.328;7.322;2024-02-26T06:32:26;5.47;;;4.97;;
21593;SDS011;10959;51.328;7.322;2024-02-26T06:34:54;4.63;;;4.23;;
21593;SDS011;10959;51.328;7.322;2024-02-26T06:37:21;4.90;;;4.40;;
21593;SDS011;10959;51.328;7.322;2024-02-26T06:39:48;4.70;;;4.30;;
21593;SDS011;10959;51.328;7.322;2024-02-26T06:42:17;6.03;;;4.93;;
21593;SDS011;10959;51.328;7.322;2024-02-26T06:44:43;6.30;;;4.90;;
21593;SDS011;10959;51.328;7.322;2024-02-26T06:47:09;5.80;;;5.30;;
21593;SDS011;10959;51.328;7.322;2024-02-26T06:49:36;5.77;;;5.17;;
21593;SDS011;10959;51.328;7.322;2024-02-26T06:52:03;6.63;;;5.10;;
21593;SDS011;10959;51.328;7.322;2024-02-26T06:54:30;5.10;;;4.60;;
21593;SDS011;10959;51.328;7.322;2024-02-26T06:56:57;6.07;;;5.47;;
21593;SDS011;10959;51.328;7.322;2024-02-26T06:59:24;5.00;;;4.50;;
21593;SDS011;10959;51.328;7.322;2024-02-26T07:01:50;3.83;;;3.53;;
21593;SDS011;10959;51.328;7.322;2024-02-26T07:04:17;5.60;;;4.70;;
21593;SDS011;10959;51.328;7.322;2024-02-26T07:06:43;4.63;;;3.90;;
21593;SDS011;10959;51.328;7.322;2024-02-26T07:09:11;5.07;;;4.57;;
21593;SDS011;10959;51.328;7.322;2024-02-26T07:11:38;5.03;;;4.33;;
21593;SDS011;10959;51.328;7.322;2024-02-26T07:14:08;6.93;;;5.10;;
21593;SDS011;10959;51.328;7.322;2024-02-26T07:16:34;5.20;;;4.60;;
21593;SDS011;10959;51.328;7.322;2024-02-26T07:19:01;8.47;;;5.90;;
21593;SDS011;10959;51.328;7.322;2024-02-26T07:21:27;7.70;;;4.67;;
21593;SDS011;10959;51.328;7.322;2024-02-26T07:23:54;4.83;;;4.33;;
21593;SDS011;10959;51.328;7.322;2024-02-26T07:26:20;6.10;;;4.10;;
21593;SDS011;10959;51.328;7.322;2024-02-26T07:28:49;5.67;;;5.17;;
21593;SDS011;10959;51.328;7.322;2024-02-26T07:31:17;4.93;;;4.47;;
21593;SDS011;10959;51.328;7.322;2024-02-26T07:33:43;6.50;;;4.73;;
21593;SDS011;10959;51.328;7.322;2024-02-26T07:36:10;7.10;;;5.77;;
21593;SDS011;10959;51.328;7.322;2024-02-26T07:38:38;5.17;;;4.27;;
21593;SDS011;10959;51.328;7.322;2024-02-26T07:41:04;4.70;;;4.13;;
21593;SDS011;10959;51.328;7.322;2024-02-26T07:43:31;6.00;;;5.50;;
21593;SDS011;10959;51.328;7.322;2024-02-26T07:45:57;6.03;;;5.10;;
21593;SDS011;10959;51.328;7.322;2024-02-26T07:48:25;7.03;;;6.10;;
21593;SDS011;10959;51.328;7.322;2024-02-26T07:50:52;5.80;;;5.13;;
21593;SDS011;10959;51.328;7.322;2024-02-26T07:53:18;5.20;;;4.70;;
21593;SDS011;10959;51.328;7.322;2024-02-26T07:55:45;5.80;;;4.97;;
21593;SDS011;10959;51.328;7.322;2024-02-26T07:58:12;6.53;;;5.83;;
21593;SDS011;10959;51.328;7.322;2024-02-26T08:00:38;7.50;;;5.10;;
21593;SDS011;10959;51.328;7.322;2024-02-26T08:03:05;4.70;;;4.20;;
21593;SDS011;10959;51.328;7.322;2024-02-26T08:05:33;5.40;;;4.90;;
21593;SDS011;10959;51.328;7.322;2024-02-26T08:07:59;12.17;;;6.93;;
21593;SDS011;10959;51.328;7.322;2024-02-26T08:10:26;6.43;;;5.67;;
21593;SDS011;10959;51.328;7.322;2024-02-26T08:12:52;5.87;;;5.27;;
21593;SDS011;10959;51.328;7.322;2024-02-26T08:15:19;7.87;;;6.13;;
21593;SDS011;10959;51.328;7.322;2024-02-26T08:17:45;6.20;;;5.60;;
21593;SDS011;10959;51.328;7.322;2024-02-26T08:20:12;7.47;;;6.60;;
21593;SDS011;10959;51.328;7.322;2024-02-26T08:22:40;7.47;;;6.73;;
21593;SDS011;10959;51.328;7.322;2024-02-26T08:25:07;12.30;;;6.73;;
21593;SDS011;10959;51.328;7.322;2024-02-26T08:27:35;9.33;;;7.53;;
21593;SDS011;10959;51.328;7.322;2024-02-26T08:30:01;9.13;;;7.37;;
21593;SDS011;10959;51.328;7.322;2024-02-26T08:32:27;6.50;;;5.90;;
21593;SDS011;10959;51.328;7.322;2024-02-26T08:34:54;6.70;;;5.67;;
21593;SDS011;10959;51.328;7.322;2024-02-26T08:37:20;6.13;;;5.53;;
21593;SDS011;10959;51.328;7.322;2024-02-26T08:39:48;8.17;;;7.37;;
21593;SDS011;10959;51.328;7.322;2024-02-26T08:42:15;8.67;;;7.37;;
21593;SDS011;10959;51.328;7.322;2024-02-26T08:44:41;9.20;;;7.93;;
21593;SDS011;10959;51.328;7.322;2024-02-26T08:47:08;7.37;;;6.47;;
21593;SDS011;10959;51.328;7.322;2024-02-26T08:49:34;8.00;;;6.00;;
21593;SDS011;10959;51.328;7.322;2024-02-26T08:52:01;6.90;;;5.70;;
21593;SDS011;10959;51.328;7.322;2024-02-26T08:54:27;5.50;;;5.00;;
21593;SDS011;10959;51.328;7.322;2024-02-26T08:56:55;7.87;;;6.73;;
21593;SDS011;10959;51.328;7.322;2024-02-26T08:59:21;8.63;;;6.30;;
21593;SDS011;10959;51.328;7.322;2024-02-26T09:01:48;8.07;;;6.97;;
21593;SDS011;10959;51.328;7.322;2024-02-26T09:04:14;7.20;;;6.33;;
21593;SDS011;10959;51.328;7.322;2024-02-26T09:06:41;7.17;;;6.47;;
21593;SDS011;10959;51.328;7.322;2024-02-26T09:09:07;8.00;;;6.40;;
21593;SDS011;10959;51.328;7.322;2024-02-26T09:11:34;7.57;;;6.27;;
21593;SDS011;10959;51.328;7.322;2024-02-26T09:14:01;6.03;;;5.43;;
21593;SDS011;10959;51.328;7.322;2024-02-26T09:16:28;7.23;;;6.53;;
21593;SDS011;10959;51.328;7.322;2024-02-26T09:18:55;5.27;;;4.80;;
21593;SDS011;10959;51.328;7.322;2024-02-26T09:21:22;6.90;;;5.73;;
21593;SDS011;10959;51.328;7.322;2024-02-26T09:23:49;6.53;;;5.93;;
21593;SDS011;10959;51.328;7.322;2024-02-26T09:26:16;6.70;;;6.10;;
21593;SDS011;10959;51.328;7.322;2024-02-26T09:28:42;6.67;;;5.73;;
21593;SDS011;10959;51.328;7.322;2024-02-26T09:31:10;7.70;;;6.20;;
21593;SDS011;10959;51.328;7.322;2024-02-26T09:33:37;7.57;;;6.13;;
21593;SDS011;10959;51.328;7.322;2024-02-26T09:36:04;5.93;;;5.33;;
21593;SDS011;10959;51.328;7.322;2024-02-26T09:38:31;6.93;;;6.23;;
21593;SDS011;10959;51.328;7.322;2024-02-26T09:41:02;7.70;;;6.90;;
21593;SDS011;10959;51.328;7.322;2024-02-26T09:43:30;6.47;;;5.73;;
21593;SDS011;10959;51.328;7.322;2024-02-26T09:46:03;6.07;;;4.70;;
21593;SDS011;10959;51.328;7.322;2024-02-26T09:48:31;5.73;;;5.23;;
21593;SDS011;10959;51.328;7.322;2024-02-26T09:51:00;6.37;;;5.60;;
21593;SDS011;10959;51.328;7.322;2024-02-26T09:53:28;6.20;;;5.60;;
21593;SDS011;10959;51.328;7.322;2024-02-26T09:55:56;8.50;;;6.13;;
21593;SDS011;10959;51.328;7.322;2024-02-26T09:58:23;7.90;;;7.10;;
21593;SDS011;10959;51.328;7.322;2024-02-26T10:00:51;7.57;;;6.43;;
21593;SDS011;10959;51.328;7.322;2024-02-26T10:03:23;9.53;;;7.43;;
21593;SDS011;10959;51.328;7.322;2024-02-26T10:05:55;7.40;;;6.57;;
21593;SDS011;10959;51.328;7.322;2024-02-26T10:08:23;7.90;;;7.10;;
21593;SDS011;10959;51.328;7.322;2024-02-26T10:10:50;6.70;;;6.10;;
21593;SDS011;10959;51.328;7.322;2024-02-26T10:13:16;6.00;;;5.50;;
21593;SDS011;10959;51.328;7.322;2024-02-26T10:15:45;8.60;;;7.80;;
21593;SDS011;10959;51.328;7.322;2024-02-26T10:18:11;8.20;;;7.27;;
21593;SDS011;10959;51.328;7.322;2024-02-26T10:20:38;7.03;;;6.23;;
21593;SDS011;10959;51.328;7.322;2024-02-26T10:23:06;7.10;;;6.20;;
21593;SDS011;10959;51.328;7.322;2024-02-26T10:25:32;9.17;;;6.93;;
21593;SDS011;10959;51.328;7.322;2024-02-26T10:27:59;7.90;;;6.97;;
21593;SDS011;10959;51.328;7.322;2024-02-26T10:30:28;6.67;;;6.07;;
21593;SDS011;10959;51.328;7.322;2024-02-26T10:32:55;10.17;;;7.80;;
21593;SDS011;10959;51.328;7.322;2024-02-26T10:35:22;7.43;;;6.37;;
21593;SDS011;10959;51.328;7.322;2024-02-26T10:37:49;7.97;;;7.27;;
21593;SDS011;10959;51.328;7.322;2024-02-26T10:40:17;7.70;;;6.10;;
21593;SDS011;10959;51.328;7.322;2024-02-26T10:42:44;6.50;;;5.90;;
21593;SDS011;10959;51.328;7.322;2024-02-26T10:45:11;6.73;;;5.83;;
21593;SDS011;10959;51.328;7.322;2024-02-26T10:47:37;7.90;;;6.13;;
21593;SDS011;10959;51.328;7.322;2024-02-26T10:50:06;6.37;;;5.77;;
21593;SDS011;10959;51.328;7.322;2024-02-26T10:52:33;6.13;;;5.53;;
21593;SDS011;10959;51.328;7.322;2024-02-26T10:55:01;8.87;;;8.00;;
21593;SDS011;10959;51.328;7.322;2024-02-26T10:57:31;8.37;;;7.50;;
21593;SDS011;10959;51.328;7.322;2024-02-26T10:59:59;11.17;;;8.57;;
21593;SDS011;10959;51.328;7.322;2024-02-26T11:02:29;9.27;;;7.93;;
21593;SDS011;10959;51.328;7.322;2024-02-26T11:04:57;8.77;;;7.83;;
21593;SDS011;10959;51.328;7.322;2024-02-26T11:07:25;8.50;;;7.70;;
21593;SDS011;10959;51.328;7.322;2024-02-26T11:09:52;8.47;;;7.57;;
21593;SDS011;10959;51.328;7.322;2024-02-26T11:12:19;8.57;;;7.70;;
21593;SDS011;10959;51.328;7.322;2024-02-26T11:14:50;8.73;;;7.83;;
21593;SDS011;10959;51.328;7.322;2024-02-26T11:17:20;8.47;;;7.40;;
21593;SDS011;10959;51.328;7.322;2024-02-26T11:19:48;8.57;;;7.53;;
21593;SDS011;10959;51.328;7.322;2024-02-26T11:22:16;8.37;;;7.00;;
21593;SDS011;10959;51.328;7.322;2024-02-26T11:24:43;7.20;;;6.47;;
21593;SDS011;10959;51.328;7.322;2024-02-26T11:27:10;6.30;;;5.70;;
21593;SDS011;10959;51.328;7.322;2024-02-26T11:29:38;7.17;;;6.33;;
21593;SDS011;10959;51.328;7.322;2024-02-26T11:32:10;7.73;;;6.67;;
21593;SDS011;10959;51.328;7.322;2024-02-26T11:34:37;9.10;;;8.20;;
21593;SDS011;10959;51.328;7.322;2024-02-26T11:37:11;9.20;;;8.37;;
21593;SDS011;10959;51.328;7.322;2024-02-26T11:39:39;8.57;;;7.70;;
21593;SDS011;10959;51.328;7.322;2024-02-26T11:42:06;11.50;;;9.47;;
21593;SDS011;10959;51.328;7.322;2024-02-26T11:44:33;9.47;;;8.57;;
21593;SDS011;10959;51.328;7.322;2024-02-26T11:47:10;8.27;;;6.97;;
21593;SDS011;10959;51.328;7.322;2024-02-26T11:49:37;8.97;;;8.17;;
21593;SDS011;10959;51.328;7.322;2024-02-26T11:52:04;10.40;;;9.00;;
21593;SDS011;10959;51.328;7.322;2024-02-26T11:54:39;11.63;;;10.43;;
21593;SDS011;10959;51.328;7.322;2024-02-26T11:57:22;13.13;;;10.67;;
21593;SDS011;10959;51.328;7.322;2024-02-26T11:59:49;10.50;;;9.37;;
21593;SDS011;10959;51.328;7.322;2024-02-26T12:05:07;12.13;;;10.33;;
21593;SDS011;10959;51.328;7.322;2024-02-26T12:07:35;11.67;;;10.23;;
21593;SDS011;10959;51.328;7.322;2024-02-26T12:12:59;14.00;;;11.37;;
21593;SDS011;10959;51.328;7.322;2024-02-26T12:15:30;14.23;;;12.40;;
21593;SDS011;10959;51.328;7.322;2024-02-26T12:18:00;15.33;;;12.37;;
21593;SDS011;10959;51.328;7.322;2024-02-26T12:20:28;14.97;;;13.37;;
21593;SDS011;10959;51.328;7.322;2024-02-26T12:22:54;15.37;;;13.20;;
21593;SDS011;10959;51.328;7.322;2024-02-26T12:25:23;11.63;;;10.40;;
21593;SDS011;10959;51.328;7.322;2024-02-26T12:27:51;11.47;;;10.27;;
21593;SDS011;10959;51.328;7.322;2024-02-26T12:30:17;11.93;;;10.73;;
21593;SDS011;10959;51.328;7.322;2024-02-26T12:32:44;13.00;;;10.43;;
21593;SDS011;10959;51.328;7.322;2024-02-26T12:35:12;11.60;;;9.63;;
21593;SDS011;10959;51.328;7.322;2024-02-26T12:37:38;10.27;;;9.13;;
21593;SDS011;10959;51.328;7.322;2024-02-26T12:40:06;11.57;;;9.20;;
21593;SDS011;10959;51.328;7.322;2024-02-26T12:42:34;10.27;;;9.23;;
21593;SDS011;10959;51.328;7.322;2024-02-26T12:45:04;8.40;;;7.60;;
21593;SDS011;10959;51.328;7.322;2024-02-26T12:47:34;8.73;;;7.17;;
21593;SDS011;10959;51.328;7.322;2024-02-26T12:50:02;8.80;;;7.90;;
21593;SDS011;10959;51.328;7.322;2024-02-26T12:52:30;7.73;;;6.90;;
21593;SDS011;10959;51.328;7.322;2024-02-26T12:54:58;8.10;;;7.33;;
21593;SDS011;10959;51.328;7.322;2024-02-26T12:57:25;7.33;;;6.47;;
21593;SDS011;10959;51.328;7.322;2024-02-26T12:59:54;5.83;;;5.33;;
21593;SDS011;10959;51.328;7.322;2024-02-26T13:02:20;7.17;;;5.73;;
21593;SDS011;10959;51.328;7.322;2024-02-26T13:04:47;6.77;;;6.17;;
21593;SDS011;10959;51.328;7.322;2024-02-26T13:07:14;8.07;;;5.63;;
21593;SDS011;10959;51.328;7.322;2024-02-26T13:09:42;6.43;;;5.83;;
21593;SDS011;10959;51.328;7.322;2024-02-26T13:12:09;7.20;;;6.60;;
21593;SDS011;10959;51.328;7.322;2024-02-26T13:14:35;7.10;;;5.90;;
21593;SDS011;10959;51.328;7.322;2024-02-26T13:17:02;6.97;;;6.27;;
21593;SDS011;10959;51.328;7.322;2024-02-26T13:19:29;6.73;;;6.07;;
21593;SDS011;10959;51.328;7.322;2024-02-26T13:21:56;6.30;;;5.70;;
21593;SDS011;10959;51.328;7.322;2024-02-26T13:24:29;7.00;;;6.33;;
21593;SDS011;10959;51.328;7.322;2024-02-26T13:26:57;7.47;;;6.47;;
21593;SDS011;10959;51.328;7.322;2024-02-26T13:29:24;8.07;;;6.93;;
21593;SDS011;10959;51.328;7.322;2024-02-26T13:31:53;8.27;;;7.30;;
21593;SDS011;10959;51.328;7.322;2024-02-26T13:34:24;6.73;;;6.10;;
21593;SDS011;10959;51.328;7.322;2024-02-26T13:36:51;8.67;;;7.77;;
21593;SDS011;10959;51.328;7.322;2024-02-26T13:39:21;7.90;;;6.97;;
21593;SDS011;10959;51.328;7.322;2024-02-26T13:41:49;7.97;;;6.80;;
21593;SDS011;10959;51.328;7.322;2024-02-26T13:44:17;8.17;;;7.37;;
21593;SDS011;10959;51.328;7.322;2024-02-26T13:46:44;8.23;;;7.43;;
21593;SDS011;10959;51.328;7.322;2024-02-26T13:49:10;7.17;;;6.47;;
21593;SDS011;10959;51.328;7.322;2024-02-26T13:51:37;8.60;;;7.03;;
21593;SDS011;10959;51.328;7.322;2024-02-26T13:54:03;8.37;;;7.57;;
21593;SDS011;10959;51.328;7.322;2024-02-26T13:56:30;7.57;;;6.40;;
21593;SDS011;10959;51.328;7.322;2024-02-26T13:58:57;7.13;;;5.80;;
21593;SDS011;10959;51.328;7.322;2024-02-26T14:01:25;7.83;;;7.03;;
21593;SDS011;10959;51.328;7.322;2024-02-26T14:03:53;7.73;;;6.23;;
21593;SDS011;10959;51.328;7.322;2024-02-26T14:06:20;7.03;;;6.37;;
21593;SDS011;10959;51.328;7.322;2024-02-26T14:08:46;7.40;;;6.37;;
21593;SDS011;10959;51.328;7.322;2024-02-26T14:11:13;6.23;;;5.63;;
21593;SDS011;10959;51.328;7.322;2024-02-26T14:13:39;7.37;;;5.67;;
21593;SDS011;10959;51.328;7.322;2024-02-26T14:16:06;6.97;;;6.27;;
21593;SDS011;10959;51.328;7.322;2024-02-26T14:18:34;7.40;;;6.70;;
21593;SDS011;10959;51.328;7.322;2024-02-26T14:21:01;6.00;;;5.50;;
21593;SDS011;10959;51.328;7.322;2024-02-26T14:23:28;7.47;;;6.63;;
21593;SDS011;10959;51.328;7.322;2024-02-26T14:25:55;8.43;;;6.03;;
21593;SDS011;10959;51.328;7.322;2024-02-26T14:28:21;6.33;;;5.73;;
21593;SDS011;10959;51.328;7.322;2024-02-26T14:30:49;7.13;;;6.43;;
21593;SDS011;10959;51.328;7.322;2024-02-26T14:33:16;11.13;;;6.90;;
21593;SDS011;10959;51.328;7.322;2024-02-26T14:35:43;6.53;;;5.80;;
21593;SDS011;10959;51.328;7.322;2024-02-26T14:38:10;8.07;;;5.87;;
21593;SDS011;10959;51.328;7.322;2024-02-26T14:40:36;7.97;;;7.20;;
21593;SDS011;10959;51.328;7.322;2024-02-26T14:43:03;7.83;;;6.60;;
21593;SDS011;10959;51.328;7.322;2024-02-26T14:45:30;7.33;;;6.30;;
21593;SDS011;10959;51.328;7.322;2024-02-26T14:47:57;9.63;;;7.20;;
21593;SDS011;10959;51.328;7.322;2024-02-26T14:50:24;9.97;;;6.67;;